sensor_id;sensor_type;location;lat;lon;timestamp;P1;durP1;ratioP1;P2;durP2;ratioP2
50769;SDS011;36740;48.698;11.472;2023-06-19T00:02:18;13.02;;;6.18;;
50769;SDS011;36740;48.698;11.472;2023-06-19T00:05:04;10.50;;;6.80;;
50769;SDS011;36740;48.698;11.472;2023-06-19T00:07:49;15.70;;;6.95;;
50769;SDS011;36740;48.698;11.472;2023-06-19T00:10:35;7.28;;;5.88;;
50769;SDS011;36740;48.698;11.472;2023-06-19T00:13:20;10.95;;;6.57;;
50769;SDS011;36740;48.698;11.472;2023-06-19T00:16:06;11.68;;;6.45;;
50769;SDS011;36740;48.698;11.472;2023-06-19T00:18:52;14.40;;;7.03;;
50769;SDS011;36740;48.698;11.472;2023-06-19T00:21:41;11.85;;;7.88;;
50769;SDS011;36740;48.698;11.472;2023-06-19T00:24:28;14.52;;;7.47;;
50769;SDS011;36740;48.698;11.472;2023-06-19T00:27:13;8.10;;;5.60;;
50769;SDS011;36740;48.698;11.472;2023-06-19T00:29:59;10.43;;;6.82;;
50769;SDS011;36740;48.698;11.472;2023-06-19T00:32:47;9.45;;;6.60;;
50769;SDS011;36740;48.698;11.472;2023-06-19T00:35:34;12.85;;;8.05;;
50769;SDS011;36740;48.698;11.472;2023-06-19T00:38:20;11.70;;;6.50;;
50769;SDS011;36740;48.698;11.472;2023-06-19T00:41:05;10.82;;;7.35;;
50769;SDS011;36740;48.698;11.472;2023-06-19T00:43:51;11.00;;;6.80;;
50769;SDS011;36740;48.698;11.472;2023-06-19T00:46:38;10.73;;;6.60;;
50769;SDS011;36740;48.698;11.472;2023-06-19T00:49:25;12.48;;;6.65;;
50769;SDS011;36740;48.698;11.472;2023-06-19T00:52:11;9.75;;;6.63;;
50769;SDS011;36740;48.698;11.472;2023-06-19T00:54:57;10.75;;;6.50;;
50769;SDS011;36740;48.698;11.472;2023-06-19T00:57:43;8.30;;;5.93;;
50769;SDS011;36740;48.698;11.472;2023-06-19T01:00:28;8.70;;;6.13;;
50769;SDS011;36740;48.698;11.472;2023-06-19T01:03:15;11.25;;;7.55;;
50769;SDS011;36740;48.698;11.472;2023-06-19T01:06:00;12.10;;;6.82;;
50769;SDS011;36740;48.698;11.472;2023-06-19T01:11:32;19.20;;;7.07;;
50769;SDS011;36740;48.698;11.472;2023-06-19T01:14:21;12.40;;;7.50;;
50769;SDS011;36740;48.698;11.472;2023-06-19T01:17:10;11.85;;;6.18;;
50769;SDS011;36740;48.698;11.472;2023-06-19T01:19:58;10.63;;;6.65;;
50769;SDS011;36740;48.698;11.472;2023-06-19T01:22:43;9.27;;;6.40;;
50769;SDS011;36740;48.698;11.472;2023-06-19T01:25:29;9.52;;;5.95;;
50769;SDS011;36740;48.698;11.472;2023-06-19T01:28:15;8.63;;;5.63;;
50769;SDS011;36740;48.698;11.472;2023-06-19T01:31:00;9.23;;;5.68;;
50769;SDS011;36740;48.698;11.472;2023-06-19T01:33:47;11.02;;;7.10;;
50769;SDS011;36740;48.698;11.472;2023-06-19T01:36:35;11.02;;;6.70;;
50769;SDS011;36740;48.698;11.472;2023-06-19T01:39:20;12.18;;;8.00;;
50769;SDS011;36740;48.698;11.472;2023-06-19T01:42:06;11.60;;;7.00;;
50769;SDS011;36740;48.698;11.472;2023-06-19T01:44:54;8.60;;;5.35;;
50769;SDS011;36740;48.698;11.472;2023-06-19T01:47:40;11.13;;;6.82;;
50769;SDS011;36740;48.698;11.472;2023-06-19T01:50:26;9.98;;;6.15;;
50769;SDS011;36740;48.698;11.472;2023-06-19T01:53:11;9.18;;;4.97;;
50769;SDS011;36740;48.698;11.472;2023-06-19T01:55:57;9.75;;;4.95;;
50769;SDS011;36740;48.698;11.472;2023-06-19T01:58:43;10.88;;;5.78;;
50769;SDS011;36740;48.698;11.472;2023-06-19T02:01:29;13.52;;;6.38;;
50769;SDS011;36740;48.698;11.472;2023-06-19T02:04:14;8.70;;;6.15;;
50769;SDS011;36740;48.698;11.472;2023-06-19T02:07:00;9.93;;;6.60;;
50769;SDS011;36740;48.698;11.472;2023-06-19T02:09:45;10.82;;;5.95;;
50769;SDS011;36740;48.698;11.472;2023-06-19T02:12:31;9.15;;;5.05;;
50769;SDS011;36740;48.698;11.472;2023-06-19T02:15:17;10.00;;;5.63;;
50769;SDS011;36740;48.698;11.472;2023-06-19T02:18:02;8.23;;;4.50;;
50769;SDS011;36740;48.698;11.472;2023-06-19T02:20:48;8.73;;;5.20;;
50769;SDS011;36740;48.698;11.472;2023-06-19T02:23:33;11.00;;;6.90;;
50769;SDS011;36740;48.698;11.472;2023-06-19T02:26:19;11.15;;;5.40;;
50769;SDS011;36740;48.698;11.472;2023-06-19T02:29:05;9.90;;;6.70;;
50769;SDS011;36740;48.698;11.472;2023-06-19T02:31:50;10.15;;;5.78;;
50769;SDS011;36740;48.698;11.472;2023-06-19T02:34:36;10.00;;;6.53;;
50769;SDS011;36740;48.698;11.472;2023-06-19T02:37:21;9.48;;;5.32;;
50769;SDS011;36740;48.698;11.472;2023-06-19T02:40:07;9.50;;;6.63;;
50769;SDS011;36740;48.698;11.472;2023-06-19T02:42:54;14.55;;;5.68;;
50769;SDS011;36740;48.698;11.472;2023-06-19T02:45:40;8.52;;;5.47;;
50769;SDS011;36740;48.698;11.472;2023-06-19T02:48:25;10.60;;;5.82;;
50769;SDS011;36740;48.698;11.472;2023-06-19T02:51:11;8.88;;;5.53;;
50769;SDS011;36740;48.698;11.472;2023-06-19T02:53:56;10.52;;;6.75;;
50769;SDS011;36740;48.698;11.472;2023-06-19T02:56:42;7.95;;;5.32;;
50769;SDS011;36740;48.698;11.472;2023-06-19T02:59:28;8.27;;;5.20;;
50769;SDS011;36740;48.698;11.472;2023-06-19T03:02:13;8.48;;;5.22;;
50769;SDS011;36740;48.698;11.472;2023-06-19T03:04:59;11.55;;;6.60;;
50769;SDS011;36740;48.698;11.472;2023-06-19T03:07:44;11.55;;;6.93;;
50769;SDS011;36740;48.698;11.472;2023-06-19T03:10:30;9.13;;;6.22;;
50769;SDS011;36740;48.698;11.472;2023-06-19T03:13:16;8.68;;;5.28;;
50769;SDS011;36740;48.698;11.472;2023-06-19T03:16:02;11.73;;;6.78;;
50769;SDS011;36740;48.698;11.472;2023-06-19T03:18:47;12.52;;;7.68;;
50769;SDS011;36740;48.698;11.472;2023-06-19T03:21:33;11.27;;;6.05;;
50769;SDS011;36740;48.698;11.472;2023-06-19T03:24:20;13.73;;;7.50;;
50769;SDS011;36740;48.698;11.472;2023-06-19T03:27:06;18.95;;;5.68;;
50769;SDS011;36740;48.698;11.472;2023-06-19T03:29:52;17.55;;;6.72;;
50769;SDS011;36740;48.698;11.472;2023-06-19T03:32:38;9.50;;;5.53;;
50769;SDS011;36740;48.698;11.472;2023-06-19T03:35:23;12.48;;;6.57;;
50769;SDS011;36740;48.698;11.472;2023-06-19T03:38:09;10.75;;;7.20;;
50769;SDS011;36740;48.698;11.472;2023-06-19T03:40:54;13.80;;;6.55;;
50769;SDS011;36740;48.698;11.472;2023-06-19T03:43:40;8.85;;;5.93;;
50769;SDS011;36740;48.698;11.472;2023-06-19T03:46:26;11.73;;;6.15;;
50769;SDS011;36740;48.698;11.472;2023-06-19T03:49:11;12.35;;;6.85;;
50769;SDS011;36740;48.698;11.472;2023-06-19T03:51:57;10.68;;;5.18;;
50769;SDS011;36740;48.698;11.472;2023-06-19T03:54:42;12.65;;;6.90;;
50769;SDS011;36740;48.698;11.472;2023-06-19T03:57:28;11.50;;;6.30;;
50769;SDS011;36740;48.698;11.472;2023-06-19T04:00:14;10.07;;;6.32;;
50769;SDS011;36740;48.698;11.472;2023-06-19T04:03:00;9.50;;;5.43;;
50769;SDS011;36740;48.698;11.472;2023-06-19T04:05:45;10.73;;;6.40;;
50769;SDS011;36740;48.698;11.472;2023-06-19T04:08:31;10.75;;;7.13;;
50769;SDS011;36740;48.698;11.472;2023-06-19T04:11:16;9.57;;;5.78;;
50769;SDS011;36740;48.698;11.472;2023-06-19T04:14:02;9.50;;;6.22;;
50769;SDS011;36740;48.698;11.472;2023-06-19T04:16:48;10.23;;;5.80;;
50769;SDS011;36740;48.698;11.472;2023-06-19T04:19:33;11.70;;;6.63;;
50769;SDS011;36740;48.698;11.472;2023-06-19T04:22:19;11.52;;;6.30;;
50769;SDS011;36740;48.698;11.472;2023-06-19T04:25:08;13.80;;;6.25;;
50769;SDS011;36740;48.698;11.472;2023-06-19T04:27:54;9.35;;;5.60;;
50769;SDS011;36740;48.698;11.472;2023-06-19T04:30:39;10.25;;;6.18;;
50769;SDS011;36740;48.698;11.472;2023-06-19T04:33:26;7.50;;;5.53;;
50769;SDS011;36740;48.698;11.472;2023-06-19T04:36:11;10.65;;;6.88;;
50769;SDS011;36740;48.698;11.472;2023-06-19T04:38:57;9.32;;;7.20;;
50769;SDS011;36740;48.698;11.472;2023-06-19T04:41:43;11.07;;;6.60;;
50769;SDS011;36740;48.698;11.472;2023-06-19T04:44:29;21.33;;;6.88;;
50769;SDS011;36740;48.698;11.472;2023-06-19T04:47:19;9.85;;;5.68;;
50769;SDS011;36740;48.698;11.472;2023-06-19T04:50:06;11.13;;;6.22;;
50769;SDS011;36740;48.698;11.472;2023-06-19T04:52:52;14.68;;;6.90;;
50769;SDS011;36740;48.698;11.472;2023-06-19T04:55:38;11.63;;;7.38;;
50769;SDS011;36740;48.698;11.472;2023-06-19T04:58:23;11.45;;;7.07;;
50769;SDS011;36740;48.698;11.472;2023-06-19T05:01:09;13.02;;;6.72;;
50769;SDS011;36740;48.698;11.472;2023-06-19T05:03:55;10.57;;;7.13;;
50769;SDS011;36740;48.698;11.472;2023-06-19T05:06:41;23.92;;;10.02;;
50769;SDS011;36740;48.698;11.472;2023-06-19T05:09:28;13.23;;;7.93;;
50769;SDS011;36740;48.698;11.472;2023-06-19T05:12:13;14.85;;;8.93;;
50769;SDS011;36740;48.698;11.472;2023-06-19T05:14:59;12.43;;;7.18;;
50769;SDS011;36740;48.698;11.472;2023-06-19T05:17:44;12.25;;;8.43;;
50769;SDS011;36740;48.698;11.472;2023-06-19T05:20:31;13.18;;;7.80;;
50769;SDS011;36740;48.698;11.472;2023-06-19T05:23:17;10.15;;;7.53;;
50769;SDS011;36740;48.698;11.472;2023-06-19T05:26:02;11.75;;;7.38;;
50769;SDS011;36740;48.698;11.472;2023-06-19T05:28:48;11.18;;;6.45;;
50769;SDS011;36740;48.698;11.472;2023-06-19T05:31:34;12.85;;;6.97;;
50769;SDS011;36740;48.698;11.472;2023-06-19T05:36:49;15.05;;;6.97;;
50769;SDS011;36740;48.698;11.472;2023-06-19T05:39:35;22.33;;;8.02;;
50769;SDS011;36740;48.698;11.472;2023-06-19T05:42:21;11.70;;;6.20;;
50769;SDS011;36740;48.698;11.472;2023-06-19T05:45:06;13.40;;;8.05;;
50769;SDS011;36740;48.698;11.472;2023-06-19T05:47:52;12.52;;;7.03;;
50769;SDS011;36740;48.698;11.472;2023-06-19T05:50:38;10.43;;;7.30;;
50769;SDS011;36740;48.698;11.472;2023-06-19T05:53:23;13.48;;;7.85;;
50769;SDS011;36740;48.698;11.472;2023-06-19T05:56:09;13.18;;;7.25;;
50769;SDS011;36740;48.698;11.472;2023-06-19T05:58:55;10.48;;;7.10;;
50769;SDS011;36740;48.698;11.472;2023-06-19T06:01:40;11.90;;;6.32;;
50769;SDS011;36740;48.698;11.472;2023-06-19T06:04:26;11.70;;;7.43;;
50769;SDS011;36740;48.698;11.472;2023-06-19T06:07:12;10.55;;;6.50;;
50769;SDS011;36740;48.698;11.472;2023-06-19T06:09:58;10.90;;;7.47;;
50769;SDS011;36740;48.698;11.472;2023-06-19T06:12:44;16.42;;;7.72;;
50769;SDS011;36740;48.698;11.472;2023-06-19T06:15:30;10.77;;;7.90;;
50769;SDS011;36740;48.698;11.472;2023-06-19T06:18:15;12.90;;;7.90;;
50769;SDS011;36740;48.698;11.472;2023-06-19T06:21:01;10.68;;;7.70;;
50769;SDS011;36740;48.698;11.472;2023-06-19T06:23:46;10.27;;;6.95;;
50769;SDS011;36740;48.698;11.472;2023-06-19T06:26:33;10.38;;;7.88;;
50769;SDS011;36740;48.698;11.472;2023-06-19T06:29:18;18.02;;;8.35;;
50769;SDS011;36740;48.698;11.472;2023-06-19T06:32:05;12.98;;;8.10;;
50769;SDS011;36740;48.698;11.472;2023-06-19T06:34:53;11.97;;;6.63;;
50769;SDS011;36740;48.698;11.472;2023-06-19T06:37:39;11.63;;;7.90;;
50769;SDS011;36740;48.698;11.472;2023-06-19T06:40:25;12.13;;;7.55;;
50769;SDS011;36740;48.698;11.472;2023-06-19T06:43:11;12.55;;;6.88;;
50769;SDS011;36740;48.698;11.472;2023-06-19T06:45:56;12.15;;;7.65;;
50769;SDS011;36740;48.698;11.472;2023-06-19T06:48:42;13.15;;;8.05;;
50769;SDS011;36740;48.698;11.472;2023-06-19T06:51:28;12.07;;;7.05;;
50769;SDS011;36740;48.698;11.472;2023-06-19T06:54:13;13.80;;;7.32;;
50769;SDS011;36740;48.698;11.472;2023-06-19T06:56:59;11.02;;;7.30;;
50769;SDS011;36740;48.698;11.472;2023-06-19T06:59:45;16.08;;;8.30;;
50769;SDS011;36740;48.698;11.472;2023-06-19T07:02:30;12.77;;;8.02;;
50769;SDS011;36740;48.698;11.472;2023-06-19T07:05:16;11.73;;;8.43;;
50769;SDS011;36740;48.698;11.472;2023-06-19T07:08:02;14.55;;;8.23;;
50769;SDS011;36740;48.698;11.472;2023-06-19T07:10:49;14.57;;;8.02;;
50769;SDS011;36740;48.698;11.472;2023-06-19T07:13:34;11.40;;;8.75;;
50769;SDS011;36740;48.698;11.472;2023-06-19T07:16:20;15.82;;;9.13;;
50769;SDS011;36740;48.698;11.472;2023-06-19T07:19:05;11.98;;;8.40;;
50769;SDS011;36740;48.698;11.472;2023-06-19T07:21:51;12.02;;;8.65;;
50769;SDS011;36740;48.698;11.472;2023-06-19T07:24:37;12.77;;;7.50;;
50769;SDS011;36740;48.698;11.472;2023-06-19T07:27:22;13.02;;;8.68;;
50769;SDS011;36740;48.698;11.472;2023-06-19T07:30:09;10.70;;;7.00;;
50769;SDS011;36740;48.698;11.472;2023-06-19T07:32:56;13.10;;;7.95;;
50769;SDS011;36740;48.698;11.472;2023-06-19T07:35:41;13.05;;;7.65;;
50769;SDS011;36740;48.698;11.472;2023-06-19T07:38:27;10.75;;;6.45;;
50769;SDS011;36740;48.698;11.472;2023-06-19T07:41:13;11.05;;;6.50;;
50769;SDS011;36740;48.698;11.472;2023-06-19T07:43:58;12.48;;;7.95;;
50769;SDS011;36740;48.698;11.472;2023-06-19T07:46:44;10.10;;;7.35;;
50769;SDS011;36740;48.698;11.472;2023-06-19T07:49:30;12.80;;;6.93;;
50769;SDS011;36740;48.698;11.472;2023-06-19T07:52:15;11.18;;;6.97;;
50769;SDS011;36740;48.698;11.472;2023-06-19T07:55:01;12.77;;;8.43;;
50769;SDS011;36740;48.698;11.472;2023-06-19T07:57:46;13.65;;;7.93;;
50769;SDS011;36740;48.698;11.472;2023-06-19T08:00:32;13.40;;;8.27;;
50769;SDS011;36740;48.698;11.472;2023-06-19T08:03:18;17.55;;;8.88;;
50769;SDS011;36740;48.698;11.472;2023-06-19T08:06:03;14.13;;;8.23;;
50769;SDS011;36740;48.698;11.472;2023-06-19T08:08:49;14.15;;;8.45;;
50769;SDS011;36740;48.698;11.472;2023-06-19T08:11:34;12.82;;;9.90;;
50769;SDS011;36740;48.698;11.472;2023-06-19T08:14:22;14.82;;;9.88;;
50769;SDS011;36740;48.698;11.472;2023-06-19T08:17:08;13.95;;;8.02;;
50769;SDS011;36740;48.698;11.472;2023-06-19T08:19:56;11.52;;;8.77;;
50769;SDS011;36740;48.698;11.472;2023-06-19T08:22:41;13.38;;;8.73;;
50769;SDS011;36740;48.698;11.472;2023-06-19T08:25:27;15.65;;;8.82;;
50769;SDS011;36740;48.698;11.472;2023-06-19T08:28:13;14.85;;;7.97;;
50769;SDS011;36740;48.698;11.472;2023-06-19T08:30:58;14.82;;;8.85;;
50769;SDS011;36740;48.698;11.472;2023-06-19T08:33:46;16.70;;;9.73;;
50769;SDS011;36740;48.698;11.472;2023-06-19T08:36:33;17.77;;;9.13;;
50769;SDS011;36740;48.698;11.472;2023-06-19T08:39:22;15.13;;;10.40;;
50769;SDS011;36740;48.698;11.472;2023-06-19T08:42:08;14.30;;;8.88;;
50769;SDS011;36740;48.698;11.472;2023-06-19T08:44:53;12.55;;;8.15;;
50769;SDS011;36740;48.698;11.472;2023-06-19T08:47:39;15.55;;;9.43;;
50769;SDS011;36740;48.698;11.472;2023-06-19T08:50:25;13.07;;;8.35;;
50769;SDS011;36740;48.698;11.472;2023-06-19T08:53:11;13.43;;;8.23;;
50769;SDS011;36740;48.698;11.472;2023-06-19T08:55:57;14.10;;;9.27;;
50769;SDS011;36740;48.698;11.472;2023-06-19T08:58:43;13.63;;;9.57;;
50769;SDS011;36740;48.698;11.472;2023-06-19T09:01:28;17.95;;;10.45;;
50769;SDS011;36740;48.698;11.472;2023-06-19T09:04:14;15.02;;;9.38;;
50769;SDS011;36740;48.698;11.472;2023-06-19T09:07:00;11.75;;;9.10;;
50769;SDS011;36740;48.698;11.472;2023-06-19T09:09:47;15.73;;;10.82;;
50769;SDS011;36740;48.698;11.472;2023-06-19T09:12:33;15.80;;;9.52;;
50769;SDS011;36740;48.698;11.472;2023-06-19T09:15:19;14.93;;;10.00;;
50769;SDS011;36740;48.698;11.472;2023-06-19T09:18:08;17.40;;;9.60;;
50769;SDS011;36740;48.698;11.472;2023-06-19T09:20:54;14.27;;;9.00;;
50769;SDS011;36740;48.698;11.472;2023-06-19T09:23:40;12.95;;;9.55;;
50769;SDS011;36740;48.698;11.472;2023-06-19T09:26:30;11.55;;;6.85;;
50769;SDS011;36740;48.698;11.472;2023-06-19T09:29:16;14.02;;;9.60;;
50769;SDS011;36740;48.698;11.472;2023-06-19T09:32:13;13.90;;;8.85;;
50769;SDS011;36740;48.698;11.472;2023-06-19T09:34:59;18.10;;;8.70;;
50769;SDS011;36740;48.698;11.472;2023-06-19T09:37:44;12.68;;;8.95;;
50769;SDS011;36740;48.698;11.472;2023-06-19T09:40:30;12.38;;;8.38;;
50769;SDS011;36740;48.698;11.472;2023-06-19T09:43:18;12.88;;;8.45;;
50769;SDS011;36740;48.698;11.472;2023-06-19T09:46:05;15.18;;;9.10;;
50769;SDS011;36740;48.698;11.472;2023-06-19T09:48:51;14.90;;;9.60;;
50769;SDS011;36740;48.698;11.472;2023-06-19T09:51:41;10.87;;;6.73;;
50769;SDS011;36740;48.698;11.472;2023-06-19T09:54:26;12.02;;;7.47;;
50769;SDS011;36740;48.698;11.472;2023-06-19T09:57:12;15.52;;;8.68;;
50769;SDS011;36740;48.698;11.472;2023-06-19T09:59:58;12.18;;;8.05;;
50769;SDS011;36740;48.698;11.472;2023-06-19T10:02:45;11.13;;;7.60;;
50769;SDS011;36740;48.698;11.472;2023-06-19T10:05:31;11.68;;;6.95;;
50769;SDS011;36740;48.698;11.472;2023-06-19T10:08:26;10.57;;;6.18;;
50769;SDS011;36740;48.698;11.472;2023-06-19T10:11:12;9.65;;;6.97;;
50769;SDS011;36740;48.698;11.472;2023-06-19T10:14:05;9.38;;;5.72;;
50769;SDS011;36740;48.698;11.472;2023-06-19T10:16:51;9.45;;;6.35;;
50769;SDS011;36740;48.698;11.472;2023-06-19T10:19:36;11.43;;;7.35;;
50769;SDS011;36740;48.698;11.472;2023-06-19T10:22:22;10.50;;;7.10;;
50769;SDS011;36740;48.698;11.472;2023-06-19T10:25:08;10.02;;;6.30;;
50769;SDS011;36740;48.698;11.472;2023-06-19T10:27:53;15.80;;;5.90;;
50769;SDS011;36740;48.698;11.472;2023-06-19T10:30:40;9.60;;;5.72;;
50769;SDS011;36740;48.698;11.472;2023-06-19T10:33:32;8.98;;;5.53;;
50769;SDS011;36740;48.698;11.472;2023-06-19T10:36:19;11.55;;;5.95;;
50769;SDS011;36740;48.698;11.472;2023-06-19T10:39:05;8.43;;;4.53;;
50769;SDS011;36740;48.698;11.472;2023-06-19T10:41:52;14.52;;;6.88;;
50769;SDS011;36740;48.698;11.472;2023-06-19T10:44:37;12.10;;;5.57;;
50769;SDS011;36740;48.698;11.472;2023-06-19T10:47:23;9.63;;;5.97;;
50769;SDS011;36740;48.698;11.472;2023-06-19T10:50:10;8.73;;;5.15;;
50769;SDS011;36740;48.698;11.472;2023-06-19T10:52:55;10.57;;;4.60;;
50769;SDS011;36740;48.698;11.472;2023-06-19T10:55:41;9.82;;;5.43;;
50769;SDS011;36740;48.698;11.472;2023-06-19T10:58:27;10.20;;;5.82;;
50769;SDS011;36740;48.698;11.472;2023-06-19T11:01:13;11.35;;;7.03;;
50769;SDS011;36740;48.698;11.472;2023-06-19T11:03:59;8.40;;;5.18;;
50769;SDS011;36740;48.698;11.472;2023-06-19T11:06:44;10.40;;;5.30;;
50769;SDS011;36740;48.698;11.472;2023-06-19T11:09:31;7.50;;;5.57;;
50769;SDS011;36740;48.698;11.472;2023-06-19T11:12:20;6.35;;;4.60;;
50769;SDS011;36740;48.698;11.472;2023-06-19T11:15:06;8.80;;;5.38;;
50769;SDS011;36740;48.698;11.472;2023-06-19T11:17:52;8.27;;;5.13;;
50769;SDS011;36740;48.698;11.472;2023-06-19T11:20:47;10.35;;;5.68;;
50769;SDS011;36740;48.698;11.472;2023-06-19T11:23:35;7.70;;;4.82;;
50769;SDS011;36740;48.698;11.472;2023-06-19T11:26:20;11.13;;;5.53;;
50769;SDS011;36740;48.698;11.472;2023-06-19T11:29:13;8.95;;;6.47;;
50769;SDS011;36740;48.698;11.472;2023-06-19T11:32:13;8.25;;;4.97;;
50769;SDS011;36740;48.698;11.472;2023-06-19T11:35:03;8.82;;;5.63;;
50769;SDS011;36740;48.698;11.472;2023-06-19T11:37:49;8.38;;;4.97;;
50769;SDS011;36740;48.698;11.472;2023-06-19T11:40:40;6.95;;;5.10;;
50769;SDS011;36740;48.698;11.472;2023-06-19T11:43:30;11.50;;;6.40;;
50769;SDS011;36740;48.698;11.472;2023-06-19T11:46:15;12.35;;;5.75;;
50769;SDS011;36740;48.698;11.472;2023-06-19T11:51:59;8.95;;;5.47;;
50769;SDS011;36740;48.698;11.472;2023-06-19T11:54:45;8.48;;;4.45;;
50769;SDS011;36740;48.698;11.472;2023-06-19T11:57:31;10.63;;;5.45;;
50769;SDS011;36740;48.698;11.472;2023-06-19T12:00:18;6.28;;;4.38;;
50769;SDS011;36740;48.698;11.472;2023-06-19T12:03:04;9.85;;;5.43;;
50769;SDS011;36740;48.698;11.472;2023-06-19T12:05:49;8.55;;;5.72;;
50769;SDS011;36740;48.698;11.472;2023-06-19T12:08:35;7.15;;;4.97;;
50769;SDS011;36740;48.698;11.472;2023-06-19T12:11:22;6.78;;;4.13;;
50769;SDS011;36740;48.698;11.472;2023-06-19T12:14:08;7.90;;;4.20;;
50769;SDS011;36740;48.698;11.472;2023-06-19T12:16:53;7.03;;;4.30;;
50769;SDS011;36740;48.698;11.472;2023-06-19T12:19:39;6.47;;;4.03;;
50769;SDS011;36740;48.698;11.472;2023-06-19T12:22:25;7.45;;;4.38;;
50769;SDS011;36740;48.698;11.472;2023-06-19T12:25:11;8.88;;;5.30;;
50769;SDS011;36740;48.698;11.472;2023-06-19T12:27:57;22.40;;;6.22;;
50769;SDS011;36740;48.698;11.472;2023-06-19T12:30:42;8.30;;;5.45;;
50769;SDS011;36740;48.698;11.472;2023-06-19T12:33:29;8.25;;;5.35;;
50769;SDS011;36740;48.698;11.472;2023-06-19T12:36:18;8.97;;;5.20;;
50769;SDS011;36740;48.698;11.472;2023-06-19T12:39:04;9.48;;;5.70;;
50769;SDS011;36740;48.698;11.472;2023-06-19T12:41:58;9.38;;;5.90;;
50769;SDS011;36740;48.698;11.472;2023-06-19T12:44:44;8.90;;;5.22;;
50769;SDS011;36740;48.698;11.472;2023-06-19T12:47:30;6.75;;;4.47;;
50769;SDS011;36740;48.698;11.472;2023-06-19T12:50:15;7.60;;;5.10;;
50769;SDS011;36740;48.698;11.472;2023-06-19T12:53:01;12.20;;;5.80;;
50769;SDS011;36740;48.698;11.472;2023-06-19T12:55:47;11.13;;;5.63;;
50769;SDS011;36740;48.698;11.472;2023-06-19T12:58:33;7.80;;;5.10;;
50769;SDS011;36740;48.698;11.472;2023-06-19T13:01:19;6.53;;;4.00;;
50769;SDS011;36740;48.698;11.472;2023-06-19T13:04:04;4.65;;;3.30;;
50769;SDS011;36740;48.698;11.472;2023-06-19T13:06:50;6.55;;;3.72;;
50769;SDS011;36740;48.698;11.472;2023-06-19T13:09:36;6.38;;;3.03;;
50769;SDS011;36740;48.698;11.472;2023-06-19T13:12:22;8.38;;;4.22;;
50769;SDS011;36740;48.698;11.472;2023-06-19T13:15:08;9.25;;;3.13;;
50769;SDS011;36740;48.698;11.472;2023-06-19T13:17:53;6.85;;;3.95;;
50769;SDS011;36740;48.698;11.472;2023-06-19T13:20:39;6.05;;;3.55;;
50769;SDS011;36740;48.698;11.472;2023-06-19T13:23:24;5.15;;;3.53;;
50769;SDS011;36740;48.698;11.472;2023-06-19T13:26:10;7.00;;;3.83;;
50769;SDS011;36740;48.698;11.472;2023-06-19T13:28:56;6.70;;;4.43;;
50769;SDS011;36740;48.698;11.472;2023-06-19T13:31:44;9.57;;;4.90;;
50769;SDS011;36740;48.698;11.472;2023-06-19T13:34:29;6.93;;;3.78;;
50769;SDS011;36740;48.698;11.472;2023-06-19T13:37:15;10.63;;;3.83;;
50769;SDS011;36740;48.698;11.472;2023-06-19T13:40:01;6.22;;;3.85;;
50769;SDS011;36740;48.698;11.472;2023-06-19T13:42:48;4.03;;;2.70;;
50769;SDS011;36740;48.698;11.472;2023-06-19T13:45:33;4.88;;;3.22;;
50769;SDS011;36740;48.698;11.472;2023-06-19T13:48:20;8.57;;;3.85;;
50769;SDS011;36740;48.698;11.472;2023-06-19T13:51:05;6.38;;;3.78;;
50769;SDS011;36740;48.698;11.472;2023-06-19T13:53:51;6.90;;;3.53;;
50769;SDS011;36740;48.698;11.472;2023-06-19T13:56:36;9.38;;;3.63;;
50769;SDS011;36740;48.698;11.472;2023-06-19T13:59:23;7.20;;;4.13;;
50769;SDS011;36740;48.698;11.472;2023-06-19T14:02:09;7.25;;;3.88;;
50769;SDS011;36740;48.698;11.472;2023-06-19T14:04:55;8.32;;;4.60;;
50769;SDS011;36740;48.698;11.472;2023-06-19T14:07:42;14.40;;;4.68;;
50769;SDS011;36740;48.698;11.472;2023-06-19T14:10:28;5.05;;;3.42;;
50769;SDS011;36740;48.698;11.472;2023-06-19T14:13:13;6.25;;;3.22;;
50769;SDS011;36740;48.698;11.472;2023-06-19T14:15:59;5.70;;;3.38;;
50769;SDS011;36740;48.698;11.472;2023-06-19T14:18:45;6.15;;;3.42;;
50769;SDS011;36740;48.698;11.472;2023-06-19T14:21:30;9.80;;;4.10;;
50769;SDS011;36740;48.698;11.472;2023-06-19T14:24:16;8.40;;;4.20;;
50769;SDS011;36740;48.698;11.472;2023-06-19T14:27:02;5.88;;;3.95;;
50769;SDS011;36740;48.698;11.472;2023-06-19T14:29:47;6.25;;;3.60;;
50769;SDS011;36740;48.698;11.472;2023-06-19T14:32:33;4.72;;;3.13;;
50769;SDS011;36740;48.698;11.472;2023-06-19T14:35:19;7.53;;;3.25;;
50769;SDS011;36740;48.698;11.472;2023-06-19T14:38:04;5.85;;;3.20;;
50769;SDS011;36740;48.698;11.472;2023-06-19T14:40:50;9.05;;;4.32;;
50769;SDS011;36740;48.698;11.472;2023-06-19T14:43:36;7.22;;;3.95;;
50769;SDS011;36740;48.698;11.472;2023-06-19T14:46:21;6.15;;;3.42;;
50769;SDS011;36740;48.698;11.472;2023-06-19T14:49:09;5.47;;;3.50;;
50769;SDS011;36740;48.698;11.472;2023-06-19T14:51:55;7.00;;;3.58;;
50769;SDS011;36740;48.698;11.472;2023-06-19T14:54:42;5.80;;;3.35;;
50769;SDS011;36740;48.698;11.472;2023-06-19T14:57:28;7.82;;;2.80;;
50769;SDS011;36740;48.698;11.472;2023-06-19T15:00:13;5.32;;;3.55;;
50769;SDS011;36740;48.698;11.472;2023-06-19T15:02:59;6.93;;;3.53;;
50769;SDS011;36740;48.698;11.472;2023-06-19T15:05:45;5.78;;;3.15;;
50769;SDS011;36740;48.698;11.472;2023-06-19T15:08:31;6.20;;;3.33;;
50769;SDS011;36740;48.698;11.472;2023-06-19T15:11:16;5.90;;;3.85;;
50769;SDS011;36740;48.698;11.472;2023-06-19T15:14:02;20.90;;;4.60;;
50769;SDS011;36740;48.698;11.472;2023-06-19T15:16:48;6.18;;;3.10;;
50769;SDS011;36740;48.698;11.472;2023-06-19T15:19:33;6.20;;;3.58;;
50769;SDS011;36740;48.698;11.472;2023-06-19T15:22:19;5.43;;;3.33;;
50769;SDS011;36740;48.698;11.472;2023-06-19T15:25:04;4.30;;;2.47;;
50769;SDS011;36740;48.698;11.472;2023-06-19T15:27:50;4.80;;;3.35;;
50769;SDS011;36740;48.698;11.472;2023-06-19T15:30:36;8.65;;;3.35;;
50769;SDS011;36740;48.698;11.472;2023-06-19T15:33:21;5.65;;;3.17;;
50769;SDS011;36740;48.698;11.472;2023-06-19T15:36:07;4.95;;;2.72;;
50769;SDS011;36740;48.698;11.472;2023-06-19T15:38:53;5.70;;;3.40;;
50769;SDS011;36740;48.698;11.472;2023-06-19T15:41:38;7.38;;;3.72;;
50769;SDS011;36740;48.698;11.472;2023-06-19T15:44:24;5.75;;;3.20;;
50769;SDS011;36740;48.698;11.472;2023-06-19T15:47:10;4.80;;;3.25;;
50769;SDS011;36740;48.698;11.472;2023-06-19T15:49:55;7.63;;;3.15;;
50769;SDS011;36740;48.698;11.472;2023-06-19T15:52:44;6.10;;;3.75;;
50769;SDS011;36740;48.698;11.472;2023-06-19T15:55:31;6.05;;;3.08;;
50769;SDS011;36740;48.698;11.472;2023-06-19T15:58:17;6.43;;;3.92;;
50769;SDS011;36740;48.698;11.472;2023-06-19T16:01:02;7.00;;;3.22;;
50769;SDS011;36740;48.698;11.472;2023-06-19T16:03:48;7.20;;;3.30;;
50769;SDS011;36740;48.698;11.472;2023-06-19T16:06:34;4.25;;;2.40;;
50769;SDS011;36740;48.698;11.472;2023-06-19T16:09:19;5.50;;;3.13;;
50769;SDS011;36740;48.698;11.472;2023-06-19T16:12:05;5.95;;;2.85;;
50769;SDS011;36740;48.698;11.472;2023-06-19T16:14:51;9.25;;;3.25;;
50769;SDS011;36740;48.698;11.472;2023-06-19T16:17:36;6.00;;;4.53;;
50769;SDS011;36740;48.698;11.472;2023-06-19T16:20:22;5.78;;;3.28;;
50769;SDS011;36740;48.698;11.472;2023-06-19T16:23:08;6.93;;;4.15;;
50769;SDS011;36740;48.698;11.472;2023-06-19T16:25:56;4.75;;;3.03;;